sensor_id;sensor_type;location;lat;lon;timestamp;temperature;humidity
15184;DHT22;7693;49.266;7.104;2023-04-07T05:09:47;5.60;99.90
15184;DHT22;7693;49.266;7.104;2023-04-07T05:12:12;5.60;99.90
15184;DHT22;7693;49.266;7.104;2023-04-07T05:14:38;5.60;99.90
15184;DHT22;7693;49.266;7.104;2023-04-07T05:17:03;5.60;99.90
15184;DHT22;7693;49.266;7.104;2023-04-07T05:19:29;5.60;99.90
15184;DHT22;7693;49.266;7.104;2023-04-07T05:21:55;5.60;99.90
15184;DHT22;7693;49.266;7.104;2023-04-07T05:24:21;5.60;99.90
15184;DHT22;7693;49.266;7.104;2023-04-07T05:26:46;5.60;99.90
15184;DHT22;7693;49.266;7.104;2023-04-07T05:29:12;5.70;99.90
15184;DHT22;7693;49.266;7.104;2023-04-07T05:31:37;5.70;99.90
15184;DHT22;7693;49.266;7.104;2023-04-07T05:34:04;5.80;99.90
15184;DHT22;7693;49.266;7.104;2023-04-07T05:36:30;5.90;99.90
15184;DHT22;7693;49.266;7.104;2023-04-07T05:38:56;6.00;99.90
15184;DHT22;7693;49.266;7.104;2023-04-07T05:41:21;6.10;99.90
15184;DHT22;7693;49.266;7.104;2023-04-07T05:43:47;6.20;99.90
15184;DHT22;7693;49.266;7.104;2023-04-07T05:46:12;6.30;99.90
15184;DHT22;7693;49.266;7.104;2023-04-07T05:48:38;6.40;99.90
15184;DHT22;7693;49.266;7.104;2023-04-07T05:51:03;6.40;99.90
15184;DHT22;7693;49.266;7.104;2023-04-07T05:53:29;6.50;99.90
15184;DHT22;7693;49.266;7.104;2023-04-07T05:55:55;6.60;99.90
15184;DHT22;7693;49.266;7.104;2023-04-07T05:58:21;6.70;99.90
15184;DHT22;7693;49.266;7.104;2023-04-07T06:00:46;6.70;99.90
15184;DHT22;7693;49.266;7.104;2023-04-07T06:03:12;6.70;99.90
15184;DHT22;7693;49.266;7.104;2023-04-07T06:05:37;6.70;99.90
15184;DHT22;7693;49.266;7.104;2023-04-07T06:08:10;6.70;99.90
15184;DHT22;7693;49.266;7.104;2023-04-07T06:10:35;6.70;99.90
15184;DHT22;7693;49.266;7.104;2023-04-07T06:13:01;6.80;99.90
15184;DHT22;7693;49.266;7.104;2023-04-07T06:15:27;6.80;99.90
15184;DHT22;7693;49.266;7.104;2023-04-07T06:17:52;6.80;99.90
15184;DHT22;7693;49.266;7.104;2023-04-07T06:20:18;6.80;99.90
15184;DHT22;7693;49.266;7.104;2023-04-07T06:22:46;6.80;99.90
15184;DHT22;7693;49.266;7.104;2023-04-07T06:25:11;6.90;99.90
15184;DHT22;7693;49.266;7.104;2023-04-07T06:27:37;6.90;99.90
15184;DHT22;7693;49.266;7.104;2023-04-07T06:30:03;6.90;99.90
15184;DHT22;7693;49.266;7.104;2023-04-07T06:32:28;7.00;99.90
15184;DHT22;7693;49.266;7.104;2023-04-07T06:34:54;7.10;99.90
15184;DHT22;7693;49.266;7.104;2023-04-07T06:37:20;7.20;99.90
15184;DHT22;7693;49.266;7.104;2023-04-07T06:39:49;7.30;99.90
15184;DHT22;7693;49.266;7.104;2023-04-07T06:42:14;7.40;99.90
15184;DHT22;7693;49.266;7.104;2023-04-07T06:44:40;7.60;99.90
15184;DHT22;7693;49.266;7.104;2023-04-07T06:47:05;7.70;99.90
15184;DHT22;7693;49.266;7.104;2023-04-07T06:49:31;7.90;99.90
15184;DHT22;7693;49.266;7.104;2023-04-07T06:51:57;8.00;99.90
15184;DHT22;7693;49.266;7.104;2023-04-07T06:54:22;8.20;99.90
15184;DHT22;7693;49.266;7.104;2023-04-07T06:56:48;8.30;99.90
15184;DHT22;7693;49.266;7.104;2023-04-07T06:59:14;8.40;99.90
15184;DHT22;7693;49.266;7.104;2023-04-07T07:01:39;8.40;99.90
15184;DHT22;7693;49.266;7.104;2023-04-07T07:04:05;8.50;99.90
15184;DHT22;7693;49.266;7.104;2023-04-07T07:06:30;8.50;99.90
15184;DHT22;7693;49.266;7.104;2023-04-07T07:08:57;8.60;99.90
15184;DHT22;7693;49.266;7.104;2023-04-07T07:11:22;8.60;99.90
15184;DHT22;7693;49.266;7.104;2023-04-07T07:13:48;8.70;99.90
15184;DHT22;7693;49.266;7.104;2023-04-07T07:16:13;8.70;99.90
15184;DHT22;7693;49.266;7.104;2023-04-07T07:18:39;8.70;99.90
15184;DHT22;7693;49.266;7.104;2023-04-07T07:21:05;8.80;99.90
15184;DHT22;7693;49.266;7.104;2023-04-07T07:23:30;8.70;99.90
15184;DHT22;7693;49.266;7.104;2023-04-07T07:25:56;8.80;99.90
15184;DHT22;7693;49.266;7.104;2023-04-07T07:28:22;8.70;99.90
15184;DHT22;7693;49.266;7.104;2023-04-07T07:30:48;8.70;99.90
15184;DHT22;7693;49.266;7.104;2023-04-07T07:33:14;8.70;99.90
15184;DHT22;7693;49.266;7.104;2023-04-07T07:35:39;8.70;99.90
15184;DHT22;7693;49.266;7.104;2023-04-07T07:38:05;8.70;99.90
15184;DHT22;7693;49.266;7.104;2023-04-07T07:40:31;8.70;99.90
15184;DHT22;7693;49.266;7.104;2023-04-07T07:42:57;8.70;99.90
15184;DHT22;7693;49.266;7.104;2023-04-07T07:45:23;8.70;99.90
15184;DHT22;7693;49.266;7.104;2023-04-07T07:47:49;8.70;99.90
15184;DHT22;7693;49.266;7.104;2023-04-07T07:50:15;8.70;99.90
15184;DHT22;7693;49.266;7.104;2023-04-07T07:52:40;8.80;99.90
15184;DHT22;7693;49.266;7.104;2023-04-07T07:55:06;8.80;99.90
15184;DHT22;7693;49.266;7.104;2023-04-07T07:57:32;8.80;99.90
15184;DHT22;7693;49.266;7.104;2023-04-07T07:59:57;8.90;99.90
15184;DHT22;7693;49.266;7.104;2023-04-07T08:02:23;8.90;99.90
15184;DHT22;7693;49.266;7.104;2023-04-07T08:04:55;8.90;99.90
15184;DHT22;7693;49.266;7.104;2023-04-07T08:07:21;8.90;99.90
15184;DHT22;7693;49.266;7.104;2023-04-07T08:09:46;8.90;99.90
15184;DHT22;7693;49.266;7.104;2023-04-07T08:12:12;8.90;99.90
15184;DHT22;7693;49.266;7.104;2023-04-07T08:14:38;8.90;99.90
15184;DHT22;7693;49.266;7.104;2023-04-07T08:17:04;8.90;99.90
15184;DHT22;7693;49.266;7.104;2023-04-07T08:19:29;9.00;99.90
15184;DHT22;7693;49.266;7.104;2023-04-07T08:21:55;8.90;99.90
15184;DHT22;7693;49.266;7.104;2023-04-07T08:24:20;8.90;99.90
15184;DHT22;7693;49.266;7.104;2023-04-07T08:26:46;8.90;99.90
15184;DHT22;7693;49.266;7.104;2023-04-07T08:29:12;9.00;99.90
15184;DHT22;7693;49.266;7.104;2023-04-07T08:31:38;9.00;99.90
15184;DHT22;7693;49.266;7.104;2023-04-07T08:34:03;9.00;99.90
15184;DHT22;7693;49.266;7.104;2023-04-07T08:36:29;9.00;99.90
15184;DHT22;7693;49.266;7.104;2023-04-07T08:38:55;9.00;99.90
15184;DHT22;7693;49.266;7.104;2023-04-07T08:41:29;9.10;99.90
15184;DHT22;7693;49.266;7.104;2023-04-07T08:43:57;9.10;99.90
15184;DHT22;7693;49.266;7.104;2023-04-07T08:46:24;9.10;99.90
15184;DHT22;7693;49.266;7.104;2023-04-07T08:48:51;9.10;99.90
15184;DHT22;7693;49.266;7.104;2023-04-07T08:51:31;9.20;99.90
15184;DHT22;7693;49.266;7.104;2023-04-07T08:54:10;9.30;99.90
15184;DHT22;7693;49.266;7.104;2023-04-07T08:56:37;9.30;99.90
15184;DHT22;7693;49.266;7.104;2023-04-07T08:59:06;9.40;99.90
15184;DHT22;7693;49.266;7.104;2023-04-07T09:01:33;9.50;99.90
15184;DHT22;7693;49.266;7.104;2023-04-07T09:04:04;9.50;99.90
15184;DHT22;7693;49.266;7.104;2023-04-07T09:06:30;9.60;99.90
15184;DHT22;7693;49.266;7.104;2023-04-07T09:09:00;9.60;99.90
15184;DHT22;7693;49.266;7.104;2023-04-07T09:11:26;9.70;99.90
15184;DHT22;7693;49.266;7.104;2023-04-07T09:13:53;9.70;99.90
15184;DHT22;7693;49.266;7.104;2023-04-07T09:16:19;9.70;99.90
15184;DHT22;7693;49.266;7.104;2023-04-07T09:18:44;9.70;99.90
15184;DHT22;7693;49.266;7.104;2023-04-07T09:21:10;9.70;99.90
15184;DHT22;7693;49.266;7.104;2023-04-07T09:23:40;9.80;99.90
15184;DHT22;7693;49.266;7.104;2023-04-07T09:26:26;9.80;99.90
15184;DHT22;7693;49.266;7.104;2023-04-07T09:28:59;9.90;99.90
15184;DHT22;7693;49.266;7.104;2023-04-07T09:34:25;10.00;99.90
15184;DHT22;7693;49.266;7.104;2023-04-07T09:36:51;10.00;99.90
15184;DHT22;7693;49.266;7.104;2023-04-07T09:39:16;10.10;99.90
15184;DHT22;7693;49.266;7.104;2023-04-07T09:41:42;10.10;99.90
15184;DHT22;7693;49.266;7.104;2023-04-07T09:44:09;10.10;99.90
15184;DHT22;7693;49.266;7.104;2023-04-07T09:46:35;10.10;99.90
15184;DHT22;7693;49.266;7.104;2023-04-07T09:49:03;10.10;99.90
15184;DHT22;7693;49.266;7.104;2023-04-07T09:51:29;10.10;99.90
15184;DHT22;7693;49.266;7.104;2023-04-07T09:53:55;10.20;99.90
15184;DHT22;7693;49.266;7.104;2023-04-07T09:56:21;10.20;99.90
15184;DHT22;7693;49.266;7.104;2023-04-07T09:58:48;10.20;99.90
15184;DHT22;7693;49.266;7.104;2023-04-07T12:45:05;11.20;99.90
15184;DHT22;7693;49.266;7.104;2023-04-07T12:47:30;11.30;99.90
15184;DHT22;7693;49.266;7.104;2023-04-07T12:49:56;11.30;99.90
15184;DHT22;7693;49.266;7.104;2023-04-07T12:52:22;11.50;99.90
15184;DHT22;7693;49.266;7.104;2023-04-07T12:54:47;11.50;99.90
15184;DHT22;7693;49.266;7.104;2023-04-07T12:57:13;11.60;99.90
15184;DHT22;7693;49.266;7.104;2023-04-07T12:59:38;11.60;99.90
15184;DHT22;7693;49.266;7.104;2023-04-07T13:02:04;11.80;99.90
15184;DHT22;7693;49.266;7.104;2023-04-07T13:04:30;11.90;99.90
15184;DHT22;7693;49.266;7.104;2023-04-07T13:06:56;12.00;99.90
15184;DHT22;7693;49.266;7.104;2023-04-07T13:09:21;12.10;99.90
15184;DHT22;7693;49.266;7.104;2023-04-07T13:11:47;12.20;99.90
15184;DHT22;7693;49.266;7.104;2023-04-07T13:14:12;12.30;99.90
15184;DHT22;7693;49.266;7.104;2023-04-07T13:16:38;12.40;99.90
15184;DHT22;7693;49.266;7.104;2023-04-07T13:19:04;12.60;99.90
15184;DHT22;7693;49.266;7.104;2023-04-07T13:21:30;12.60;99.90
15184;DHT22;7693;49.266;7.104;2023-04-07T13:23:55;12.70;99.90
15184;DHT22;7693;49.266;7.104;2023-04-07T13:26:21;12.80;99.90
15184;DHT22;7693;49.266;7.104;2023-04-07T13:28:46;13.00;99.90
15184;DHT22;7693;49.266;7.104;2023-04-07T13:31:12;13.10;99.90
15184;DHT22;7693;49.266;7.104;2023-04-07T13:33:40;13.10;99.90
15184;DHT22;7693;49.266;7.104;2023-04-07T13:36:05;13.20;99.90
15184;DHT22;7693;49.266;7.104;2023-04-07T13:38:32;13.20;99.90
15184;DHT22;7693;49.266;7.104;2023-04-07T13:40:57;13.20;99.90
15184;DHT22;7693;49.266;7.104;2023-04-07T13:43:23;13.20;99.90
15184;DHT22;7693;49.266;7.104;2023-04-07T13:45:48;13.20;99.90
15184;DHT22;7693;49.266;7.104;2023-04-07T13:48:14;13.20;99.90
15184;DHT22;7693;49.266;7.104;2023-04-07T13:50:40;13.20;99.90
15184;DHT22;7693;49.266;7.104;2023-04-07T13:53:05;13.30;99.90
15184;DHT22;7693;49.266;7.104;2023-04-07T13:55:31;13.20;99.90
15184;DHT22;7693;49.266;7.104;2023-04-07T13:57:57;13.10;99.90
15184;DHT22;7693;49.266;7.104;2023-04-07T14:00:22;13.10;99.90
15184;DHT22;7693;49.266;7.104;2023-04-07T14:02:48;13.10;99.90
15184;DHT22;7693;49.266;7.104;2023-04-07T14:05:14;13.10;99.90
15184;DHT22;7693;49.266;7.104;2023-04-07T14:07:39;13.00;99.90
15184;DHT22;7693;49.266;7.104;2023-04-07T14:10:05;12.90;99.90
15184;DHT22;7693;49.266;7.104;2023-04-07T14:12:31;12.80;99.90
15184;DHT22;7693;49.266;7.104;2023-04-07T14:14:56;12.70;99.90
15184;DHT22;7693;49.266;7.104;2023-04-07T14:17:22;12.60;99.90
15184;DHT22;7693;49.266;7.104;2023-04-07T14:19:47;12.60;99.90
15184;DHT22;7693;49.266;7.104;2023-04-07T14:22:13;12.60;99.90
15184;DHT22;7693;49.266;7.104;2023-04-07T14:24:39;12.50;99.90
15184;DHT22;7693;49.266;7.104;2023-04-07T14:27:05;12.40;99.90
15184;DHT22;7693;49.266;7.104;2023-04-07T14:29:31;12.40;99.90
15184;DHT22;7693;49.266;7.104;2023-04-07T14:31:56;12.30;99.90
15184;DHT22;7693;49.266;7.104;2023-04-07T14:34:22;12.20;99.90
15184;DHT22;7693;49.266;7.104;2023-04-07T14:36:55;12.10;99.90
15184;DHT22;7693;49.266;7.104;2023-04-07T14:39:22;12.10;99.90
15184;DHT22;7693;49.266;7.104;2023-04-07T14:41:48;12.10;99.90
15184;DHT22;7693;49.266;7.104;2023-04-07T14:44:14;12.10;99.90
15184;DHT22;7693;49.266;7.104;2023-04-07T14:46:40;12.10;99.90
15184;DHT22;7693;49.266;7.104;2023-04-07T14:49:07;12.10;99.90
15184;DHT22;7693;49.266;7.104;2023-04-07T14:51:32;12.10;99.90
15184;DHT22;7693;49.266;7.104;2023-04-07T14:53:58;12.00;99.90
15184;DHT22;7693;49.266;7.104;2023-04-07T14:56:24;11.90;99.90
15184;DHT22;7693;49.266;7.104;2023-04-07T14:58:50;11.70;99.90
15184;DHT22;7693;49.266;7.104;2023-04-07T15:01:16;11.60;99.90
15184;DHT22;7693;49.266;7.104;2023-04-07T15:03:42;11.50;99.90
15184;DHT22;7693;49.266;7.104;2023-04-07T15:06:09;11.50;99.90
15184;DHT22;7693;49.266;7.104;2023-04-07T15:08:36;11.40;99.90
15184;DHT22;7693;49.266;7.104;2023-04-07T15:11:07;11.30;99.90
15184;DHT22;7693;49.266;7.104;2023-04-07T15:13:34;11.40;99.90
15184;DHT22;7693;49.266;7.104;2023-04-07T15:18:32;11.50;99.90
15184;DHT22;7693;49.266;7.104;2023-04-07T15:20:58;11.60;99.90
15184;DHT22;7693;49.266;7.104;2023-04-07T15:23:24;11.60;99.90
15184;DHT22;7693;49.266;7.104;2023-04-07T15:25:49;11.60;99.90
15184;DHT22;7693;49.266;7.104;2023-04-07T15:28:20;11.60;99.90
15184;DHT22;7693;49.266;7.104;2023-04-07T15:30:46;11.50;99.90
15184;DHT22;7693;49.266;7.104;2023-04-07T15:33:12;11.50;99.90
15184;DHT22;7693;49.266;7.104;2023-04-07T15:35:41;11.50;99.90
15184;DHT22;7693;49.266;7.104;2023-04-07T15:38:06;11.50;99.90
15184;DHT22;7693;49.266;7.104;2023-04-07T15:40:35;11.60;99.90
15184;DHT22;7693;49.266;7.104;2023-04-07T15:43:01;11.60;99.90
15184;DHT22;7693;49.266;7.104;2023-04-07T15:45:27;11.60;99.90
15184;DHT22;7693;49.266;7.104;2023-04-07T15:47:52;11.70;99.90
15184;DHT22;7693;49.266;7.104;2023-04-07T15:50:18;11.90;99.90
15184;DHT22;7693;49.266;7.104;2023-04-07T15:52:44;12.00;99.90
15184;DHT22;7693;49.266;7.104;2023-04-07T15:55:09;12.10;99.90
15184;DHT22;7693;49.266;7.104;2023-04-07T15:57:35;12.00;99.90
15184;DHT22;7693;49.266;7.104;2023-04-07T16:00:01;12.00;99.90
15184;DHT22;7693;49.266;7.104;2023-04-07T16:02:26;11.90;99.90
15184;DHT22;7693;49.266;7.104;2023-04-07T16:04:52;11.90;99.90
15184;DHT22;7693;49.266;7.104;2023-04-07T16:07:18;11.80;99.90
15184;DHT22;7693;49.266;7.104;2023-04-07T16:09:44;11.70;99.90
15184;DHT22;7693;49.266;7.104;2023-04-07T16:12:10;11.70;99.90
15184;DHT22;7693;49.266;7.104;2023-04-07T16:14:35;11.60;99.90
15184;DHT22;7693;49.266;7.104;2023-04-07T16:17:01;11.50;99.90
15184;DHT22;7693;49.266;7.104;2023-04-07T16:19:27;11.50;99.90
15184;DHT22;7693;49.266;7.104;2023-04-07T16:21:53;11.40;99.90
15184;DHT22;7693;49.266;7.104;2023-04-07T16:24:19;11.30;99.90
15184;DHT22;7693;49.266;7.104;2023-04-07T16:26:44;11.30;99.90
15184;DHT22;7693;49.266;7.104;2023-04-07T16:29:17;11.20;99.90
15184;DHT22;7693;49.266;7.104;2023-04-07T16:31:43;11.10;99.90
15184;DHT22;7693;49.266;7.104;2023-04-07T16:34:12;11.00;99.90
15184;DHT22;7693;49.266;7.104;2023-04-07T16:36:39;11.00;99.90
15184;DHT22;7693;49.266;7.104;2023-04-07T16:39:04;11.00;99.90
15184;DHT22;7693;49.266;7.104;2023-04-07T16:41:30;10.90;99.90
15184;DHT22;7693;49.266;7.104;2023-04-07T16:43:56;10.90;99.90
15184;DHT22;7693;49.266;7.104;2023-04-07T16:46:22;10.80;99.90
15184;DHT22;7693;49.266;7.104;2023-04-07T16:48:50;10.80;99.90
15184;DHT22;7693;49.266;7.104;2023-04-07T16:51:19;10.70;99.90
15184;DHT22;7693;49.266;7.104;2023-04-07T16:53:46;10.60;99.90
15184;DHT22;7693;49.266;7.104;2023-04-07T16:56:21;10.60;99.90
15184;DHT22;7693;49.266;7.104;2023-04-07T16:58:47;10.60;99.90
15184;DHT22;7693;49.266;7.104;2023-04-07T17:01:13;10.50;99.90
15184;DHT22;7693;49.266;7.104;2023-04-07T17:03:39;10.50;99.90
15184;DHT22;7693;49.266;7.104;2023-04-07T17:06:05;10.50;99.90
15184;DHT22;7693;49.266;7.104;2023-04-07T17:08:35;10.40;99.90
15184;DHT22;7693;49.266;7.104;2023-04-07T17:11:05;10.40;99.90
15184;DHT22;7693;49.266;7.104;2023-04-07T17:13:31;10.40;99.90
15184;DHT22;7693;49.266;7.104;2023-04-07T17:15:57;10.30;99.90
15184;DHT22;7693;49.266;7.104;2023-04-07T17:18:24;10.30;99.90
15184;DHT22;7693;49.266;7.104;2023-04-07T17:20:49;10.30;99.90
15184;DHT22;7693;49.266;7.104;2023-04-07T17:23:16;10.30;99.90
15184;DHT22;7693;49.266;7.104;2023-04-07T17:25:42;10.30;99.90
15184;DHT22;7693;49.266;7.104;2023-04-07T17:28:08;10.30;99.90
15184;DHT22;7693;49.266;7.104;2023-04-07T17:30:35;10.30;99.90
15184;DHT22;7693;49.266;7.104;2023-04-07T17:33:02;10.30;99.90
15184;DHT22;7693;49.266;7.104;2023-04-07T17:35:28;10.30;99.90
15184;DHT22;7693;49.266;7.104;2023-04-07T17:37:53;10.30;99.90
15184;DHT22;7693;49.266;7.104;2023-04-07T17:40:21;10.30;99.90
15184;DHT22;7693;49.266;7.104;2023-04-07T17:42:47;10.30;99.90
15184;DHT22;7693;49.266;7.104;2023-04-07T17:45:13;10.30;99.90
15184;DHT22;7693;49.266;7.104;2023-04-07T17:47:39;10.20;99.90
15184;DHT22;7693;49.266;7.104;2023-04-07T17:50:05;10.20;99.90
15184;DHT22;7693;49.266;7.104;2023-04-07T17:52:31;10.20;99.90
15184;DHT22;7693;49.266;7.104;2023-04-07T17:54:57;10.20;99.90
15184;DHT22;7693;49.266;7.104;2023-04-07T17:57:23;10.20;99.90
15184;DHT22;7693;49.266;7.104;2023-04-07T17:59:49;10.20;99.90
15184;DHT22;7693;49.266;7.104;2023-04-07T18:02:15;10.20;99.90
15184;DHT22;7693;49.266;7.104;2023-04-07T18:04:41;10.10;99.90
15184;DHT22;7693;49.266;7.104;2023-04-07T18:07:07;10.10;99.90
15184;DHT22;7693;49.266;7.104;2023-04-07T18:09:34;10.10;99.90
15184;DHT22;7693;49.266;7.104;2023-04-07T18:12:00;10.10;99.90
15184;DHT22;7693;49.266;7.104;2023-04-07T18:14:27;10.00;99.90
15184;DHT22;7693;49.266;7.104;2023-04-07T18:16:53;10.00;99.90
15184;DHT22;7693;49.266;7.104;2023-04-07T18:19:20;10.00;99.90
15184;DHT22;7693;49.266;7.104;2023-04-07T18:21:47;9.90;99.90
15184;DHT22;7693;49.266;7.104;2023-04-07T18:24:14;9.90;99.90
15184;DHT22;7693;49.266;7.104;2023-04-07T18:26:40;9.90;99.90
15184;DHT22;7693;49.266;7.104;2023-04-07T18:29:08;9.90;99.90
15184;DHT22;7693;49.266;7.104;2023-04-07T18:31:35;9.90;99.90
15184;DHT22;7693;49.266;7.104;2023-04-07T18:34:00;9.80;99.90
15184;DHT22;7693;49.266;7.104;2023-04-07T18:36:26;9.80;99.90
15184;DHT22;7693;49.266;7.104;2023-04-07T18:38:52;9.80;99.90
15184;DHT22;7693;49.266;7.104;2023-04-07T18:41:18;9.80;99.90
15184;DHT22;7693;49.266;7.104;2023-04-07T18:43:43;9.70;99.90
15184;DHT22;7693;49.266;7.104;2023-04-07T18:46:12;9.70;99.90
15184;DHT22;7693;49.266;7.104;2023-04-07T18:48:37;9.70;99.90
15184;DHT22;7693;49.266;7.104;2023-04-07T18:51:05;9.60;99.90
15184;DHT22;7693;49.266;7.104;2023-04-07T18:53:31;9.60;99.90
15184;DHT22;7693;49.266;7.104;2023-04-07T18:55:57;9.60;99.90
15184;DHT22;7693;49.266;7.104;2023-04-07T18:58:23;9.50;99.90
15184;DHT22;7693;49.266;7.104;2023-04-07T19:00:48;9.50;99.90
15184;DHT22;7693;49.266;7.104;2023-04-07T19:03:14;9.50;99.90
15184;DHT22;7693;49.266;7.104;2023-04-07T19:05:40;9.50;99.90
15184;DHT22;7693;49.266;7.104;2023-04-07T19:08:06;9.50;99.90
15184;DHT22;7693;49.266;7.104;2023-04-07T19:10:32;9.50;99.90
15184;DHT22;7693;49.266;7.104;2023-04-07T19:12:58;9.50;99.90
15184;DHT22;7693;49.266;7.104;2023-04-07T19:15:25;9.50;99.90
15184;DHT22;7693;49.266;7.104;2023-04-07T19:17:50;9.50;99.90
15184;DHT22;7693;49.266;7.104;2023-04-07T19:20:16;9.40;99.90
15184;DHT22;7693;49.266;7.104;2023-04-07T19:22:42;9.40;99.90
15184;DHT22;7693;49.266;7.104;2023-04-07T19:25:08;9.40;99.90
15184;DHT22;7693;49.266;7.104;2023-04-07T19:27:34;9.40;99.90
15184;DHT22;7693;49.266;7.104;2023-04-07T19:30:00;9.40;99.90
15184;DHT22;7693;49.266;7.104;2023-04-07T19:32:25;9.40;99.90
15184;DHT22;7693;49.266;7.104;2023-04-07T19:34:52;9.40;99.90
15184;DHT22;7693;49.266;7.104;2023-04-07T19:37:18;9.40;99.90
15184;DHT22;7693;49.266;7.104;2023-04-07T19:39:45;9.40;99.90
15184;DHT22;7693;49.266;7.104;2023-04-07T19:42:13;9.40;99.90
15184;DHT22;7693;49.266;7.104;2023-04-07T19:44:39;9.40;99.90
15184;DHT22;7693;49.266;7.104;2023-04-07T19:47:05;9.40;99.90
15184;DHT22;7693;49.266;7.104;2023-04-07T19:49:31;9.30;99.90
15184;DHT22;7693;49.266;7.104;2023-04-07T19:51:57;9.30;99.90
15184;DHT22;7693;49.266;7.104;2023-04-07T19:54:22;9.30;99.90
15184;DHT22;7693;49.266;7.104;2023-04-07T19:56:48;9.30;99.90
15184;DHT22;7693;49.266;7.104;2023-04-07T19:59:13;9.20;99.90
15184;DHT22;7693;49.266;7.104;2023-04-07T20:01:39;9.20;99.90
15184;DHT22;7693;49.266;7.104;2023-04-07T20:04:05;9.20;99.90
15184;DHT22;7693;49.266;7.104;2023-04-07T20:06:30;9.20;99.90
15184;DHT22;7693;49.266;7.104;2023-04-07T20:08:56;9.10;99.90
15184;DHT22;7693;49.266;7.104;2023-04-07T20:11:23;9.10;99.90
15184;DHT22;7693;49.266;7.104;2023-04-07T20:13:48;9.10;99.90
15184;DHT22;7693;49.266;7.104;2023-04-07T20:16:14;9.00;99.90
15184;DHT22;7693;49.266;7.104;2023-04-07T20:18:40;9.10;99.90
15184;DHT22;7693;49.266;7.104;2023-04-07T20:21:05;9.00;99.90
15184;DHT22;7693;49.266;7.104;2023-04-07T20:23:32;9.00;99.90
15184;DHT22;7693;49.266;7.104;2023-04-07T20:25:58;9.00;99.90
15184;DHT22;7693;49.266;7.104;2023-04-07T20:28:23;9.00;99.90
15184;DHT22;7693;49.266;7.104;2023-04-07T20:30:49;9.00;99.90
15184;DHT22;7693;49.266;7.104;2023-04-07T20:33:15;9.00;99.90
15184;DHT22;7693;49.266;7.104;2023-04-07T20:35:41;9.00;99.90
15184;DHT22;7693;49.266;7.104;2023-04-07T20:38:06;8.90;99.90
15184;DHT22;7693;49.266;7.104;2023-04-07T20:40:36;8.90;99.90
15184;DHT22;7693;49.266;7.104;2023-04-07T20:43:02;8.90;99.90
15184;DHT22;7693;49.266;7.104;2023-04-07T20:45:28;8.90;99.90
15184;DHT22;7693;49.266;7.104;2023-04-07T20:47:54;8.90;99.90
15184;DHT22;7693;49.266;7.104;2023-04-07T20:50:20;9.00;99.90
15184;DHT22;7693;49.266;7.104;2023-04-07T20:52:45;9.00;99.90
15184;DHT22;7693;49.266;7.104;2023-04-07T20:55:11;9.00;99.90
15184;DHT22;7693;49.266;7.104;2023-04-07T20:57:37;9.00;99.90
15184;DHT22;7693;49.266;7.104;2023-04-07T21:00:06;8.90;99.90
15184;DHT22;7693;49.266;7.104;2023-04-07T21:02:33;8.90;99.90
15184;DHT22;7693;49.266;7.104;2023-04-07T21:04:59;8.90;99.90
15184;DHT22;7693;49.266;7.104;2023-04-07T21:07:25;8.90;99.90
15184;DHT22;7693;49.266;7.104;2023-04-07T21:09:51;8.90;99.90
15184;DHT22;7693;49.266;7.104;2023-04-07T21:12:16;8.90;99.90
15184;DHT22;7693;49.266;7.104;2023-04-07T21:14:43;8.80;99.90
15184;DHT22;7693;49.266;7.104;2023-04-07T21:17:09;8.80;99.90
15184;DHT22;7693;49.266;7.104;2023-04-07T21:19:35;8.80;99.90
15184;DHT22;7693;49.266;7.104;2023-04-07T21:22:01;8.80;99.90
15184;DHT22;7693;49.266;7.104;2023-04-07T21:24:26;8.80;99.90
15184;DHT22;7693;49.266;7.104;2023-04-07T21:26:54;8.80;99.90
15184;DHT22;7693;49.266;7.104;2023-04-07T21:29:20;8.80;99.90
15184;DHT22;7693;49.266;7.104;2023-04-07T21:31:46;8.80;99.90
15184;DHT22;7693;49.266;7.104;2023-04-07T21:34:12;8.80;99.90
15184;DHT22;7693;49.266;7.104;2023-04-07T21:36:37;8.80;99.90
15184;DHT22;7693;49.266;7.104;2023-04-07T21:39:04;8.80;99.90
15184;DHT22;7693;49.266;7.104;2023-04-07T21:41:31;8.80;99.90
15184;DHT22;7693;49.266;7.104;2023-04-07T21:43:56;8.70;99.90
15184;DHT22;7693;49.266;7.104;2023-04-07T21:46:22;8.70;99.90
15184;DHT22;7693;49.266;7.104;2023-04-07T21:48:47;8.70;99.90
15184;DHT22;7693;49.266;7.104;2023-04-07T21:51:13;8.70;99.90
15184;DHT22;7693;49.266;7.104;2023-04-07T21:53:39;8.70;99.90
15184;DHT22;7693;49.266;7.104;2023-04-07T21:56:06;8.70;99.90
15184;DHT22;7693;49.266;7.104;2023-04-07T21:58:33;8.70;99.90
15184;DHT22;7693;49.266;7.104;2023-04-07T22:00:59;8.70;99.90
15184;DHT22;7693;49.266;7.104;2023-04-07T22:03:25;8.70;99.90
15184;DHT22;7693;49.266;7.104;2023-04-07T22:05:50;8.70;99.90
15184;DHT22;7693;49.266;7.104;2023-04-07T22:08:16;8.70;99.90
15184;DHT22;7693;49.266;7.104;2023-04-07T22:10:42;8.80;99.90
15184;DHT22;7693;49.266;7.104;2023-04-07T22:13:08;8.70;99.90
15184;DHT22;7693;49.266;7.104;2023-04-07T22:15:34;8.70;99.90
15184;DHT22;7693;49.266;7.104;2023-04-07T22:17:59;8.70;99.90
